sensor_id;sensor_type;location;lat;lon;timestamp;temperature;humidity
19180;DHT22;9722;48.754;8.868;2023-04-28T00:01:31;10.30;88.80
19180;DHT22;9722;48.754;8.868;2023-04-28T00:04:51;10.20;89.00
19180;DHT22;9722;48.754;8.868;2023-04-28T00:08:12;10.20;89.30
19180;DHT22;9722;48.754;8.868;2023-04-28T00:11:32;10.20;89.70
19180;DHT22;9722;48.754;8.868;2023-04-28T00:14:53;10.20;90.10
19180;DHT22;9722;48.754;8.868;2023-04-28T00:18:13;10.10;90.40
19180;DHT22;9722;48.754;8.868;2023-04-28T00:21:34;10.10;90.50
19180;DHT22;9722;48.754;8.868;2023-04-28T00:24:54;10.10;90.50
19180;DHT22;9722;48.754;8.868;2023-04-28T00:28:15;10.10;90.50
19180;DHT22;9722;48.754;8.868;2023-04-28T00:31:35;10.10;90.40
19180;DHT22;9722;48.754;8.868;2023-04-28T00:34:56;10.20;90.40
19180;DHT22;9722;48.754;8.868;2023-04-28T00:38:16;10.20;90.40
19180;DHT22;9722;48.754;8.868;2023-04-28T00:41:37;10.20;90.40
19180;DHT22;9722;48.754;8.868;2023-04-28T00:44:58;10.20;90.60
19180;DHT22;9722;48.754;8.868;2023-04-28T00:48:23;10.20;90.80
19180;DHT22;9722;48.754;8.868;2023-04-28T00:51:44;10.20;90.80
19180;DHT22;9722;48.754;8.868;2023-04-28T00:55:05;10.20;90.80
19180;DHT22;9722;48.754;8.868;2023-04-28T00:58:27;10.20;90.80
19180;DHT22;9722;48.754;8.868;2023-04-28T01:01:49;10.30;90.80
19180;DHT22;9722;48.754;8.868;2023-04-28T01:05:10;10.30;90.80
19180;DHT22;9722;48.754;8.868;2023-04-28T01:08:32;10.30;90.80
19180;DHT22;9722;48.754;8.868;2023-04-28T01:11:53;10.40;90.80
19180;DHT22;9722;48.754;8.868;2023-04-28T01:15:16;10.40;90.70
19180;DHT22;9722;48.754;8.868;2023-04-28T01:18:38;10.40;90.60
19180;DHT22;9722;48.754;8.868;2023-04-28T01:22:01;10.40;90.50
19180;DHT22;9722;48.754;8.868;2023-04-28T01:25:21;10.40;90.50
19180;DHT22;9722;48.754;8.868;2023-04-28T01:28:41;10.40;90.50
19180;DHT22;9722;48.754;8.868;2023-04-28T01:32:02;10.40;90.50
19180;DHT22;9722;48.754;8.868;2023-04-28T01:35:23;10.50;90.70
19180;DHT22;9722;48.754;8.868;2023-04-28T01:38:43;10.40;90.60
19180;DHT22;9722;48.754;8.868;2023-04-28T01:42:04;10.50;90.70
19180;DHT22;9722;48.754;8.868;2023-04-28T01:45:25;10.50;90.60
19180;DHT22;9722;48.754;8.868;2023-04-28T01:48:45;10.50;90.60
19180;DHT22;9722;48.754;8.868;2023-04-28T01:52:06;10.50;90.60
19180;DHT22;9722;48.754;8.868;2023-04-28T01:55:27;10.60;90.70
19180;DHT22;9722;48.754;8.868;2023-04-28T01:58:47;10.60;90.70
19180;DHT22;9722;48.754;8.868;2023-04-28T02:02:08;10.60;90.70
19180;DHT22;9722;48.754;8.868;2023-04-28T02:05:28;10.60;90.70
19180;DHT22;9722;48.754;8.868;2023-04-28T02:08:49;10.50;90.70
19180;DHT22;9722;48.754;8.868;2023-04-28T02:12:10;10.60;90.80
19180;DHT22;9722;48.754;8.868;2023-04-28T02:15:30;10.60;90.70
19180;DHT22;9722;48.754;8.868;2023-04-28T02:18:50;10.60;90.70
19180;DHT22;9722;48.754;8.868;2023-04-28T02:22:11;10.70;90.70
19180;DHT22;9722;48.754;8.868;2023-04-28T02:25:32;10.70;90.60
19180;DHT22;9722;48.754;8.868;2023-04-28T02:28:52;10.80;90.60
19180;DHT22;9722;48.754;8.868;2023-04-28T02:32:13;10.90;90.60
19180;DHT22;9722;48.754;8.868;2023-04-28T02:35:33;10.90;90.60
19180;DHT22;9722;48.754;8.868;2023-04-28T02:38:54;11.00;90.70
19180;DHT22;9722;48.754;8.868;2023-04-28T02:42:14;11.00;90.60
19180;DHT22;9722;48.754;8.868;2023-04-28T02:45:35;11.00;90.60
19180;DHT22;9722;48.754;8.868;2023-04-28T02:48:56;11.10;90.70
19180;DHT22;9722;48.754;8.868;2023-04-28T02:52:16;11.10;90.70
19180;DHT22;9722;48.754;8.868;2023-04-28T02:55:37;11.10;90.60
19180;DHT22;9722;48.754;8.868;2023-04-28T02:58:57;11.20;90.50
19180;DHT22;9722;48.754;8.868;2023-04-28T03:02:18;11.20;90.50
19180;DHT22;9722;48.754;8.868;2023-04-28T03:05:39;11.20;90.30
19180;DHT22;9722;48.754;8.868;2023-04-28T03:09:00;11.20;90.30
19180;DHT22;9722;48.754;8.868;2023-04-28T03:12:20;11.20;90.30
19180;DHT22;9722;48.754;8.868;2023-04-28T03:15:41;11.20;90.60
19180;DHT22;9722;48.754;8.868;2023-04-28T03:19:01;11.30;90.30
19180;DHT22;9722;48.754;8.868;2023-04-28T03:22:22;11.30;90.20
19180;DHT22;9722;48.754;8.868;2023-04-28T03:25:43;11.40;90.20
19180;DHT22;9722;48.754;8.868;2023-04-28T03:29:03;11.40;90.20
19180;DHT22;9722;48.754;8.868;2023-04-28T03:32:24;11.40;90.10
19180;DHT22;9722;48.754;8.868;2023-04-28T03:35:44;11.50;90.10
19180;DHT22;9722;48.754;8.868;2023-04-28T03:39:05;11.50;90.10
19180;DHT22;9722;48.754;8.868;2023-04-28T03:42:25;11.60;90.00
19180;DHT22;9722;48.754;8.868;2023-04-28T03:45:46;11.60;89.60
19180;DHT22;9722;48.754;8.868;2023-04-28T03:49:07;11.70;89.40
19180;DHT22;9722;48.754;8.868;2023-04-28T03:52:27;11.90;89.10
19180;DHT22;9722;48.754;8.868;2023-04-28T03:55:48;11.90;88.60
19180;DHT22;9722;48.754;8.868;2023-04-28T03:59:08;12.00;88.20
19180;DHT22;9722;48.754;8.868;2023-04-28T04:02:31;12.00;87.90
19180;DHT22;9722;48.754;8.868;2023-04-28T04:05:51;12.10;87.60
19180;DHT22;9722;48.754;8.868;2023-04-28T04:09:12;12.20;87.40
19180;DHT22;9722;48.754;8.868;2023-04-28T04:12:33;12.20;87.40
19180;DHT22;9722;48.754;8.868;2023-04-28T04:15:54;12.20;87.20
19180;DHT22;9722;48.754;8.868;2023-04-28T04:19:14;12.20;87.20
19180;DHT22;9722;48.754;8.868;2023-04-28T04:22:35;12.20;87.20
19180;DHT22;9722;48.754;8.868;2023-04-28T04:25:55;12.20;87.10
19180;DHT22;9722;48.754;8.868;2023-04-28T04:29:16;12.20;87.20
19180;DHT22;9722;48.754;8.868;2023-04-28T04:32:36;12.30;87.40
19180;DHT22;9722;48.754;8.868;2023-04-28T04:35:57;12.30;87.50
19180;DHT22;9722;48.754;8.868;2023-04-28T04:39:18;12.30;87.40
19180;DHT22;9722;48.754;8.868;2023-04-28T04:42:38;12.30;87.30
19180;DHT22;9722;48.754;8.868;2023-04-28T04:45:59;12.30;87.30
19180;DHT22;9722;48.754;8.868;2023-04-28T04:49:19;12.30;87.40
19180;DHT22;9722;48.754;8.868;2023-04-28T04:52:40;12.40;87.60
19180;DHT22;9722;48.754;8.868;2023-04-28T04:56:00;12.40;87.70
19180;DHT22;9722;48.754;8.868;2023-04-28T04:59:22;12.40;88.00
19180;DHT22;9722;48.754;8.868;2023-04-28T05:02:42;12.40;88.40
19180;DHT22;9722;48.754;8.868;2023-04-28T05:06:03;12.50;88.80
19180;DHT22;9722;48.754;8.868;2023-04-28T05:09:23;12.50;89.10
19180;DHT22;9722;48.754;8.868;2023-04-28T05:12:44;12.50;89.40
19180;DHT22;9722;48.754;8.868;2023-04-28T05:16:05;12.50;89.60
19180;DHT22;9722;48.754;8.868;2023-04-28T05:19:25;12.60;90.00
19180;DHT22;9722;48.754;8.868;2023-04-28T05:22:46;12.60;90.10
19180;DHT22;9722;48.754;8.868;2023-04-28T05:26:06;12.60;90.20
19180;DHT22;9722;48.754;8.868;2023-04-28T05:29:27;12.60;90.20
19180;DHT22;9722;48.754;8.868;2023-04-28T05:32:48;12.70;90.40
19180;DHT22;9722;48.754;8.868;2023-04-28T05:36:08;12.70;90.60
19180;DHT22;9722;48.754;8.868;2023-04-28T05:39:29;12.70;90.70
19180;DHT22;9722;48.754;8.868;2023-04-28T05:42:49;12.70;90.80
19180;DHT22;9722;48.754;8.868;2023-04-28T05:46:10;12.80;91.00
19180;DHT22;9722;48.754;8.868;2023-04-28T05:49:30;12.80;91.00
19180;DHT22;9722;48.754;8.868;2023-04-28T05:52:52;12.90;91.10
19180;DHT22;9722;48.754;8.868;2023-04-28T05:56:13;12.90;91.30
19180;DHT22;9722;48.754;8.868;2023-04-28T05:59:34;13.00;91.40
19180;DHT22;9722;48.754;8.868;2023-04-28T06:02:54;13.00;91.50
19180;DHT22;9722;48.754;8.868;2023-04-28T06:06:15;13.10;91.70
19180;DHT22;9722;48.754;8.868;2023-04-28T06:09:35;13.10;92.00
19180;DHT22;9722;48.754;8.868;2023-04-28T06:12:56;13.10;92.20
19180;DHT22;9722;48.754;8.868;2023-04-28T06:16:17;13.20;92.40
19180;DHT22;9722;48.754;8.868;2023-04-28T06:19:38;13.20;92.60
19180;DHT22;9722;48.754;8.868;2023-04-28T06:22:58;13.20;92.80
19180;DHT22;9722;48.754;8.868;2023-04-28T06:26:18;13.30;93.00
19180;DHT22;9722;48.754;8.868;2023-04-28T06:29:39;13.30;93.20
19180;DHT22;9722;48.754;8.868;2023-04-28T06:33:00;13.40;93.40
19180;DHT22;9722;48.754;8.868;2023-04-28T06:36:20;13.40;93.50
19180;DHT22;9722;48.754;8.868;2023-04-28T06:39:41;13.40;93.60
19180;DHT22;9722;48.754;8.868;2023-04-28T06:43:02;13.50;93.70
19180;DHT22;9722;48.754;8.868;2023-04-28T06:46:23;13.50;93.80
19180;DHT22;9722;48.754;8.868;2023-04-28T06:49:43;13.50;94.00
19180;DHT22;9722;48.754;8.868;2023-04-28T06:53:06;13.50;94.10
19180;DHT22;9722;48.754;8.868;2023-04-28T06:56:27;13.50;94.30
19180;DHT22;9722;48.754;8.868;2023-04-28T06:59:47;13.50;94.50
19180;DHT22;9722;48.754;8.868;2023-04-28T07:03:07;13.60;94.60
19180;DHT22;9722;48.754;8.868;2023-04-28T07:06:28;13.60;94.70
19180;DHT22;9722;48.754;8.868;2023-04-28T07:09:51;13.60;95.00
19180;DHT22;9722;48.754;8.868;2023-04-28T07:13:12;13.60;95.10
19180;DHT22;9722;48.754;8.868;2023-04-28T07:16:33;13.70;95.20
19180;DHT22;9722;48.754;8.868;2023-04-28T07:19:53;13.80;95.40
19180;DHT22;9722;48.754;8.868;2023-04-28T07:23:14;13.90;95.50
19180;DHT22;9722;48.754;8.868;2023-04-28T07:26:34;13.90;95.60
19180;DHT22;9722;48.754;8.868;2023-04-28T07:29:55;14.00;95.80
19180;DHT22;9722;48.754;8.868;2023-04-28T07:33:15;14.00;96.00
19180;DHT22;9722;48.754;8.868;2023-04-28T07:36:36;14.00;96.20
19180;DHT22;9722;48.754;8.868;2023-04-28T07:39:56;13.90;96.90
19180;DHT22;9722;48.754;8.868;2023-04-28T07:43:18;13.80;97.60
19180;DHT22;9722;48.754;8.868;2023-04-28T07:46:38;13.60;98.30
19180;DHT22;9722;48.754;8.868;2023-04-28T07:49:59;13.50;99.00
19180;DHT22;9722;48.754;8.868;2023-04-28T07:53:22;13.50;99.60
19180;DHT22;9722;48.754;8.868;2023-04-28T07:56:43;13.40;99.90
19180;DHT22;9722;48.754;8.868;2023-04-28T08:00:04;13.50;99.90
19180;DHT22;9722;48.754;8.868;2023-04-28T08:03:25;13.50;99.90
19180;DHT22;9722;48.754;8.868;2023-04-28T08:06:46;13.50;99.90
19180;DHT22;9722;48.754;8.868;2023-04-28T08:10:10;13.50;99.90
19180;DHT22;9722;48.754;8.868;2023-04-28T08:13:32;13.40;99.90
19180;DHT22;9722;48.754;8.868;2023-04-28T08:16:52;13.40;99.90
19180;DHT22;9722;48.754;8.868;2023-04-28T08:20:13;13.50;99.90
19180;DHT22;9722;48.754;8.868;2023-04-28T08:23:38;13.50;99.90
19180;DHT22;9722;48.754;8.868;2023-04-28T08:27:00;13.40;99.90
19180;DHT22;9722;48.754;8.868;2023-04-28T08:30:22;13.50;99.90
19180;DHT22;9722;48.754;8.868;2023-04-28T08:33:42;13.50;99.90
19180;DHT22;9722;48.754;8.868;2023-04-28T08:37:03;13.60;99.90
19180;DHT22;9722;48.754;8.868;2023-04-28T08:40:26;13.70;99.90
19180;DHT22;9722;48.754;8.868;2023-04-28T08:43:48;13.90;99.90
19180;DHT22;9722;48.754;8.868;2023-04-28T08:47:13;14.00;99.90
19180;DHT22;9722;48.754;8.868;2023-04-28T08:50:34;14.20;99.90
19180;DHT22;9722;48.754;8.868;2023-04-28T08:53:57;14.40;99.90
19180;DHT22;9722;48.754;8.868;2023-04-28T08:57:19;14.60;99.90
19180;DHT22;9722;48.754;8.868;2023-04-28T09:00:40;14.70;99.90
19180;DHT22;9722;48.754;8.868;2023-04-28T09:04:01;14.70;99.90
19180;DHT22;9722;48.754;8.868;2023-04-28T09:07:22;14.70;99.90
19180;DHT22;9722;48.754;8.868;2023-04-28T09:10:43;14.70;99.90
19180;DHT22;9722;48.754;8.868;2023-04-28T09:14:12;14.70;99.90
19180;DHT22;9722;48.754;8.868;2023-04-28T09:17:46;14.70;99.90
19180;DHT22;9722;48.754;8.868;2023-04-28T09:21:09;14.90;99.90
19180;DHT22;9722;48.754;8.868;2023-04-28T09:24:37;15.10;99.90
19180;DHT22;9722;48.754;8.868;2023-04-28T09:28:20;15.40;99.90
19180;DHT22;9722;48.754;8.868;2023-04-28T09:31:43;15.80;99.90
19180;DHT22;9722;48.754;8.868;2023-04-28T09:35:04;16.20;99.90
19180;DHT22;9722;48.754;8.868;2023-04-28T09:38:26;16.70;99.90
19180;DHT22;9722;48.754;8.868;2023-04-28T09:41:47;17.30;99.90
19180;DHT22;9722;48.754;8.868;2023-04-28T09:45:10;17.90;99.90
19180;DHT22;9722;48.754;8.868;2023-04-28T09:48:36;18.70;99.90
19180;DHT22;9722;48.754;8.868;2023-04-28T09:52:11;19.60;97.80
19180;DHT22;9722;48.754;8.868;2023-04-28T09:55:34;20.10;95.10
19180;DHT22;9722;48.754;8.868;2023-04-28T09:59:00;20.20;94.00
19180;DHT22;9722;48.754;8.868;2023-04-28T10:02:21;20.20;93.30
19180;DHT22;9722;48.754;8.868;2023-04-28T10:05:42;20.30;92.10
19180;DHT22;9722;48.754;8.868;2023-04-28T10:09:04;20.30;92.10
19180;DHT22;9722;48.754;8.868;2023-04-28T10:12:25;20.50;92.20
19180;DHT22;9722;48.754;8.868;2023-04-28T10:15:46;20.70;90.80
19180;DHT22;9722;48.754;8.868;2023-04-28T10:19:07;20.60;90.10
19180;DHT22;9722;48.754;8.868;2023-04-28T10:26:14;20.40;90.10
19180;DHT22;9722;48.754;8.868;2023-04-28T10:29:37;20.40;90.60
19180;DHT22;9722;48.754;8.868;2023-04-28T10:36:51;20.70;89.00
19180;DHT22;9722;48.754;8.868;2023-04-28T10:40:31;20.80;89.10
19180;DHT22;9722;48.754;8.868;2023-04-28T10:43:52;21.20;87.90
19180;DHT22;9722;48.754;8.868;2023-04-28T10:47:13;21.60;85.40
19180;DHT22;9722;48.754;8.868;2023-04-28T10:50:33;22.10;83.70
19180;DHT22;9722;48.754;8.868;2023-04-28T10:57:17;23.20;77.30
19180;DHT22;9722;48.754;8.868;2023-04-28T11:00:38;23.50;74.80
19180;DHT22;9722;48.754;8.868;2023-04-28T11:04:09;23.40;73.90
19180;DHT22;9722;48.754;8.868;2023-04-28T11:07:32;23.30;73.00
19180;DHT22;9722;48.754;8.868;2023-04-28T11:11:19;23.00;71.70
19180;DHT22;9722;48.754;8.868;2023-04-28T11:14:40;22.90;72.20
19180;DHT22;9722;48.754;8.868;2023-04-28T11:18:03;23.00;71.50
19180;DHT22;9722;48.754;8.868;2023-04-28T11:21:26;23.40;71.50
19180;DHT22;9722;48.754;8.868;2023-04-28T11:24:54;24.10;68.90
19180;DHT22;9722;48.754;8.868;2023-04-28T11:28:16;25.10;64.40
19180;DHT22;9722;48.754;8.868;2023-04-28T11:31:37;25.20;62.30
19180;DHT22;9722;48.754;8.868;2023-04-28T11:34:58;25.00;61.70
19180;DHT22;9722;48.754;8.868;2023-04-28T11:38:18;24.50;62.10
19180;DHT22;9722;48.754;8.868;2023-04-28T11:41:40;24.10;63.40
19180;DHT22;9722;48.754;8.868;2023-04-28T11:45:01;24.10;64.10
19180;DHT22;9722;48.754;8.868;2023-04-28T11:48:22;24.20;63.20
19180;DHT22;9722;48.754;8.868;2023-04-28T11:51:43;24.40;63.00
19180;DHT22;9722;48.754;8.868;2023-04-28T11:55:15;24.60;62.60
19180;DHT22;9722;48.754;8.868;2023-04-28T11:58:36;24.80;60.70
19180;DHT22;9722;48.754;8.868;2023-04-28T12:02:00;25.00;60.40
19180;DHT22;9722;48.754;8.868;2023-04-28T12:05:22;25.30;59.00
19180;DHT22;9722;48.754;8.868;2023-04-28T12:08:42;25.70;57.90
19180;DHT22;9722;48.754;8.868;2023-04-28T12:12:14;25.50;57.40
19180;DHT22;9722;48.754;8.868;2023-04-28T12:15:41;25.20;57.50
19180;DHT22;9722;48.754;8.868;2023-04-28T12:19:02;24.90;57.20
19180;DHT22;9722;48.754;8.868;2023-04-28T12:22:27;24.50;58.30
19180;DHT22;9722;48.754;8.868;2023-04-28T12:25:48;24.20;58.10
19180;DHT22;9722;48.754;8.868;2023-04-28T12:29:08;23.90;58.30
19180;DHT22;9722;48.754;8.868;2023-04-28T12:32:41;23.70;58.80
19180;DHT22;9722;48.754;8.868;2023-04-28T12:36:03;23.50;59.40
19180;DHT22;9722;48.754;8.868;2023-04-28T12:39:25;23.30;60.20
19180;DHT22;9722;48.754;8.868;2023-04-28T12:42:46;23.20;60.20
19180;DHT22;9722;48.754;8.868;2023-04-28T12:46:07;23.00;60.60
19180;DHT22;9722;48.754;8.868;2023-04-28T12:49:28;23.00;61.80
19180;DHT22;9722;48.754;8.868;2023-04-28T12:52:49;23.00;61.50
19180;DHT22;9722;48.754;8.868;2023-04-28T12:56:09;23.00;61.80
19180;DHT22;9722;48.754;8.868;2023-04-28T12:59:30;23.00;61.50
19180;DHT22;9722;48.754;8.868;2023-04-28T13:02:51;23.40;61.60
19180;DHT22;9722;48.754;8.868;2023-04-28T13:06:12;24.40;59.30
19180;DHT22;9722;48.754;8.868;2023-04-28T13:09:33;25.50;57.30
19180;DHT22;9722;48.754;8.868;2023-04-28T13:12:53;25.90;55.40
19180;DHT22;9722;48.754;8.868;2023-04-28T13:16:14;26.10;55.30
19180;DHT22;9722;48.754;8.868;2023-04-28T13:19:34;26.30;54.60
19180;DHT22;9722;48.754;8.868;2023-04-28T13:22:55;26.40;54.00
19180;DHT22;9722;48.754;8.868;2023-04-28T13:26:16;26.30;53.40
19180;DHT22;9722;48.754;8.868;2023-04-28T13:29:39;25.80;53.90
19180;DHT22;9722;48.754;8.868;2023-04-28T13:33:00;25.20;54.50
19180;DHT22;9722;48.754;8.868;2023-04-28T13:36:21;24.30;55.30
19180;DHT22;9722;48.754;8.868;2023-04-28T13:39:41;23.50;57.30
19180;DHT22;9722;48.754;8.868;2023-04-28T13:43:02;22.90;59.50
19180;DHT22;9722;48.754;8.868;2023-04-28T13:46:23;22.50;59.50
19180;DHT22;9722;48.754;8.868;2023-04-28T13:49:43;22.00;61.90
19180;DHT22;9722;48.754;8.868;2023-04-28T13:53:03;21.60;62.70
19180;DHT22;9722;48.754;8.868;2023-04-28T13:56:24;21.40;64.40
19180;DHT22;9722;48.754;8.868;2023-04-28T13:59:45;21.10;65.90
19180;DHT22;9722;48.754;8.868;2023-04-28T14:03:05;20.90;67.70
19180;DHT22;9722;48.754;8.868;2023-04-28T14:06:26;20.60;69.00
19180;DHT22;9722;48.754;8.868;2023-04-28T14:09:48;20.20;70.70
19180;DHT22;9722;48.754;8.868;2023-04-28T14:13:09;19.80;72.10
19180;DHT22;9722;48.754;8.868;2023-04-28T14:16:29;19.60;74.30
19180;DHT22;9722;48.754;8.868;2023-04-28T14:19:50;19.30;76.60
19180;DHT22;9722;48.754;8.868;2023-04-28T14:23:10;19.30;79.20
19180;DHT22;9722;48.754;8.868;2023-04-28T14:26:31;19.40;80.10
19180;DHT22;9722;48.754;8.868;2023-04-28T14:29:52;19.50;80.80
19180;DHT22;9722;48.754;8.868;2023-04-28T14:33:12;19.60;81.40
19180;DHT22;9722;48.754;8.868;2023-04-28T14:36:33;19.70;82.10
19180;DHT22;9722;48.754;8.868;2023-04-28T14:39:53;19.60;82.50
19180;DHT22;9722;48.754;8.868;2023-04-28T14:43:14;19.50;82.70
19180;DHT22;9722;48.754;8.868;2023-04-28T14:46:35;19.30;83.10
19180;DHT22;9722;48.754;8.868;2023-04-28T14:49:56;19.20;83.90
19180;DHT22;9722;48.754;8.868;2023-04-28T14:53:17;19.10;84.40
19180;DHT22;9722;48.754;8.868;2023-04-28T14:56:38;19.00;84.90
19180;DHT22;9722;48.754;8.868;2023-04-28T14:59:58;18.80;84.90
19180;DHT22;9722;48.754;8.868;2023-04-28T15:03:19;18.70;85.50
19180;DHT22;9722;48.754;8.868;2023-04-28T15:06:39;18.60;86.10
19180;DHT22;9722;48.754;8.868;2023-04-28T15:10:00;18.50;87.00
19180;DHT22;9722;48.754;8.868;2023-04-28T15:13:20;18.40;87.90
19180;DHT22;9722;48.754;8.868;2023-04-28T15:16:45;18.30;89.20
19180;DHT22;9722;48.754;8.868;2023-04-28T15:20:06;17.80;90.60
19180;DHT22;9722;48.754;8.868;2023-04-28T15:23:27;17.50;91.70
19180;DHT22;9722;48.754;8.868;2023-04-28T15:26:48;17.30;92.60
19180;DHT22;9722;48.754;8.868;2023-04-28T15:30:08;17.10;93.20
19180;DHT22;9722;48.754;8.868;2023-04-28T15:33:29;17.00;93.90
19180;DHT22;9722;48.754;8.868;2023-04-28T15:36:51;17.00;94.50
19180;DHT22;9722;48.754;8.868;2023-04-28T15:40:14;17.00;95.20
19180;DHT22;9722;48.754;8.868;2023-04-28T15:43:35;17.00;95.50
19180;DHT22;9722;48.754;8.868;2023-04-28T15:46:56;17.10;95.90
19180;DHT22;9722;48.754;8.868;2023-04-28T15:50:17;17.10;95.80
19180;DHT22;9722;48.754;8.868;2023-04-28T15:53:38;17.10;95.80
19180;DHT22;9722;48.754;8.868;2023-04-28T15:56:59;17.10;95.90
19180;DHT22;9722;48.754;8.868;2023-04-28T16:00:19;17.00;96.00
19180;DHT22;9722;48.754;8.868;2023-04-28T16:03:40;17.00;96.20
19180;DHT22;9722;48.754;8.868;2023-04-28T16:07:01;16.90;96.60
19180;DHT22;9722;48.754;8.868;2023-04-28T16:10:22;16.90;96.70
19180;DHT22;9722;48.754;8.868;2023-04-28T16:13:43;16.80;96.90
19180;DHT22;9722;48.754;8.868;2023-04-28T16:17:04;16.80;97.50
19180;DHT22;9722;48.754;8.868;2023-04-28T16:20:24;16.80;97.90
19180;DHT22;9722;48.754;8.868;2023-04-28T16:23:45;16.90;98.30
19180;DHT22;9722;48.754;8.868;2023-04-28T16:27:05;17.10;98.20
19180;DHT22;9722;48.754;8.868;2023-04-28T16:30:27;17.20;98.40
19180;DHT22;9722;48.754;8.868;2023-04-28T16:33:47;17.30;98.20
19180;DHT22;9722;48.754;8.868;2023-04-28T16:37:08;17.30;98.20
19180;DHT22;9722;48.754;8.868;2023-04-28T16:40:30;17.40;98.40
19180;DHT22;9722;48.754;8.868;2023-04-28T16:43:50;17.40;98.60
19180;DHT22;9722;48.754;8.868;2023-04-28T16:47:11;17.50;98.70
19180;DHT22;9722;48.754;8.868;2023-04-28T16:50:31;17.50;98.80
19180;DHT22;9722;48.754;8.868;2023-04-28T16:53:52;17.50;98.70
19180;DHT22;9722;48.754;8.868;2023-04-28T16:57:13;17.40;98.50
19180;DHT22;9722;48.754;8.868;2023-04-28T17:00:33;17.40;98.80
19180;DHT22;9722;48.754;8.868;2023-04-28T17:03:54;17.20;99.10
19180;DHT22;9722;48.754;8.868;2023-04-28T17:07:14;17.20;99.30
19180;DHT22;9722;48.754;8.868;2023-04-28T17:10:38;17.10;99.60
19180;DHT22;9722;48.754;8.868;2023-04-28T17:13:58;17.10;99.90
19180;DHT22;9722;48.754;8.868;2023-04-28T17:17:19;17.10;99.90
19180;DHT22;9722;48.754;8.868;2023-04-28T17:20:40;17.20;99.90
19180;DHT22;9722;48.754;8.868;2023-04-28T17:24:00;17.30;99.90
19180;DHT22;9722;48.754;8.868;2023-04-28T17:27:21;17.30;99.90
19180;DHT22;9722;48.754;8.868;2023-04-28T17:30:42;17.30;99.90
19180;DHT22;9722;48.754;8.868;2023-04-28T17:34:03;17.30;99.90
19180;DHT22;9722;48.754;8.868;2023-04-28T17:37:23;17.20;99.90
19180;DHT22;9722;48.754;8.868;2023-04-28T17:40:44;17.10;99.90
19180;DHT22;9722;48.754;8.868;2023-04-28T17:44:07;17.00;99.90
19180;DHT22;9722;48.754;8.868;2023-04-28T17:47:28;16.90;99.90
19180;DHT22;9722;48.754;8.868;2023-04-28T17:50:48;16.80;99.90
19180;DHT22;9722;48.754;8.868;2023-04-28T17:54:09;16.70;99.90
19180;DHT22;9722;48.754;8.868;2023-04-28T17:57:29;16.60;99.90
19180;DHT22;9722;48.754;8.868;2023-04-28T18:00:59;16.50;99.90
19180;DHT22;9722;48.754;8.868;2023-04-28T18:04:20;16.40;99.90
19180;DHT22;9722;48.754;8.868;2023-04-28T18:07:40;16.30;99.90
19180;DHT22;9722;48.754;8.868;2023-04-28T18:11:01;16.20;99.90
19180;DHT22;9722;48.754;8.868;2023-04-28T18:14:22;16.10;99.90
19180;DHT22;9722;48.754;8.868;2023-04-28T18:17:43;16.00;99.90
19180;DHT22;9722;48.754;8.868;2023-04-28T18:21:04;15.90;99.90
19180;DHT22;9722;48.754;8.868;2023-04-28T18:24:24;15.70;99.90
19180;DHT22;9722;48.754;8.868;2023-04-28T18:27:45;15.60;99.90
19180;DHT22;9722;48.754;8.868;2023-04-28T18:31:06;15.50;99.90
19180;DHT22;9722;48.754;8.868;2023-04-28T18:34:26;15.40;99.90
19180;DHT22;9722;48.754;8.868;2023-04-28T18:37:47;15.30;99.90
19180;DHT22;9722;48.754;8.868;2023-04-28T18:41:13;15.30;99.90
19180;DHT22;9722;48.754;8.868;2023-04-28T18:44:34;15.20;99.90
19180;DHT22;9722;48.754;8.868;2023-04-28T18:47:55;15.10;99.90
19180;DHT22;9722;48.754;8.868;2023-04-28T18:51:15;15.10;99.90
19180;DHT22;9722;48.754;8.868;2023-04-28T18:54:36;15.00;99.90
19180;DHT22;9722;48.754;8.868;2023-04-28T18:57:56;15.00;99.90
19180;DHT22;9722;48.754;8.868;2023-04-28T19:01:17;15.00;99.90
19180;DHT22;9722;48.754;8.868;2023-04-28T19:04:37;14.90;99.90
19180;DHT22;9722;48.754;8.868;2023-04-28T19:08:01;14.80;99.90
19180;DHT22;9722;48.754;8.868;2023-04-28T19:11:24;14.80;99.90
19180;DHT22;9722;48.754;8.868;2023-04-28T19:14:45;14.80;99.90
19180;DHT22;9722;48.754;8.868;2023-04-28T19:18:05;14.70;99.90
19180;DHT22;9722;48.754;8.868;2023-04-28T19:21:26;14.70;99.90
19180;DHT22;9722;48.754;8.868;2023-04-28T19:24:48;14.60;99.90
19180;DHT22;9722;48.754;8.868;2023-04-28T19:28:09;14.60;99.90
19180;DHT22;9722;48.754;8.868;2023-04-28T19:31:30;14.60;99.90
19180;DHT22;9722;48.754;8.868;2023-04-28T19:34:51;14.50;99.90
19180;DHT22;9722;48.754;8.868;2023-04-28T19:38:12;14.50;99.90
19180;DHT22;9722;48.754;8.868;2023-04-28T19:41:34;14.50;99.90
19180;DHT22;9722;48.754;8.868;2023-04-28T19:44:56;14.50;99.90
19180;DHT22;9722;48.754;8.868;2023-04-28T19:48:17;14.50;99.90
19180;DHT22;9722;48.754;8.868;2023-04-28T19:51:38;14.40;99.90
19180;DHT22;9722;48.754;8.868;2023-04-28T19:54:59;14.40;99.90
19180;DHT22;9722;48.754;8.868;2023-04-28T19:58:20;14.40;99.90
19180;DHT22;9722;48.754;8.868;2023-04-28T20:01:41;14.30;99.90
19180;DHT22;9722;48.754;8.868;2023-04-28T20:05:02;14.20;99.90
19180;DHT22;9722;48.754;8.868;2023-04-28T20:08:23;14.10;99.90
19180;DHT22;9722;48.754;8.868;2023-04-28T20:11:44;13.90;99.90
19180;DHT22;9722;48.754;8.868;2023-04-28T20:15:05;13.70;99.90
19180;DHT22;9722;48.754;8.868;2023-04-28T20:18:26;13.50;99.90
19180;DHT22;9722;48.754;8.868;2023-04-28T20:21:47;13.40;99.90
19180;DHT22;9722;48.754;8.868;2023-04-28T20:25:08;13.30;99.90
19180;DHT22;9722;48.754;8.868;2023-04-28T20:28:30;13.20;99.90
19180;DHT22;9722;48.754;8.868;2023-04-28T20:31:50;13.10;99.90
19180;DHT22;9722;48.754;8.868;2023-04-28T20:35:11;13.10;99.90
19180;DHT22;9722;48.754;8.868;2023-04-28T20:38:32;13.00;99.90
19180;DHT22;9722;48.754;8.868;2023-04-28T20:41:53;12.90;99.90
19180;DHT22;9722;48.754;8.868;2023-04-28T20:45:15;12.80;99.90
19180;DHT22;9722;48.754;8.868;2023-04-28T20:48:36;12.80;99.90
19180;DHT22;9722;48.754;8.868;2023-04-28T20:52:03;12.80;99.90
19180;DHT22;9722;48.754;8.868;2023-04-28T20:55:24;12.80;99.90
19180;DHT22;9722;48.754;8.868;2023-04-28T20:58:45;12.70;99.90
19180;DHT22;9722;48.754;8.868;2023-04-28T21:02:07;12.80;99.90
19180;DHT22;9722;48.754;8.868;2023-04-28T21:05:28;12.80;99.90
19180;DHT22;9722;48.754;8.868;2023-04-28T21:08:48;12.90;99.90
19180;DHT22;9722;48.754;8.868;2023-04-28T21:12:09;13.10;99.90
19180;DHT22;9722;48.754;8.868;2023-04-28T21:15:36;13.20;99.90
19180;DHT22;9722;48.754;8.868;2023-04-28T21:18:56;13.30;99.90
19180;DHT22;9722;48.754;8.868;2023-04-28T21:22:17;13.40;99.90
19180;DHT22;9722;48.754;8.868;2023-04-28T21:25:37;13.30;99.90
19180;DHT22;9722;48.754;8.868;2023-04-28T21:28:58;13.30;99.90
19180;DHT22;9722;48.754;8.868;2023-04-28T21:32:19;13.30;99.90
19180;DHT22;9722;48.754;8.868;2023-04-28T21:35:39;13.30;99.90
19180;DHT22;9722;48.754;8.868;2023-04-28T21:39:00;13.30;99.90
19180;DHT22;9722;48.754;8.868;2023-04-28T21:42:23;13.40;99.90